Midway Middle School PTA Jingle Bell Run

Overall Finish List

December 05, 2015


Results By Pro-Fit Event Services LLC - Belton, TX www.profiteventservices.com

5K

Place Name City Bib No Age Gender Age Group Total Time Pace
1 Peter Ferretter Woodway TX 61 16 M 1 Top Fin 17:49.1 5:45/M
2 Mark Mather Hewitt TX 33 29 M 1 20-29 19:43.8 6:22/M
3 Brad Vroman Hewitt TX 18 13 M 1 Top Fin 20:36.1 6:39/M
4 Eric Ochoa 82 11 M 1 Top Fin 20:45.4 6:42/M
5 Sebastian Valdez Mcgregor TX 71 16 M 1 1-19 21:47.7 7:02/M
6 Shannen Newman Mcgregor TX 14 13 M 2 1-19 22:08.5 7:09/M
7 Isabel Valdez Mcgregor TX 70 16 F 1 Top Fin 22:18.8 7:12/M
8 Sam Cox Hewitt TX 78 13 M 3 1-19 22:25.0 7:14/M
9 Emiliano Cardenas 85 13 M 4 1-19 22:35.8 7:18/M
10 Ian Lehrmann Woodway TX 56 11 M 5 1-19 23:03.1 7:26/M
11 Tonya Trepinski 81 44 F 1 40-49 24:03.7 7:45/M
12 Wade Miller Lorena TX 36 47 M 1 40-49 24:44.9 7:59/M
13 Kate Holland Mesa AZ 41 23 F 1 20-29 25:13.0 8:08/M
14 Kade Miller Lorena TX 68 18 M 6 1-19 25:24.6 8:13/M
15 David Marek Woodway TX 38 47 M 2 40-49 25:25.0 8:13/M
16 Ray Nazzario Woodway TX 31 48 M 3 40-49 27:08.1 8:47/M
17 Lyatonga Filos Hewitt TX 24 10 M 7 1-19 27:15.5 8:47/M
18 Emma Bell Woodway TX 73 13 F 1 Top Fin 27:27.6 8:52/M
19 Ralph Getman 74 62 M 1 60-99 27:45.6 8:57/M
20 Michael Bell Woodway TX 72 50 M 1 50-59 27:54.5 9:01/M
21 Angela Rankin Woodway TX 57 44 F 2 40-49 28:04.5 9:05/M
22 Chris Earles Hewitt TX 34 50 M 2 50-59 28:08.4 9:05/M
23 Eric Ochoa 83 44 M 4 40-49 28:42.7 9:16/M
24 Kayla Cooper Woodway TX 55 32 F 1 30-39 28:45.9 9:17/M
25 Rudy Tisdale Waco TX 51 75 M 2 60-99 28:48.8 9:18/M
26 Trina Derosier Hewitt TX 6 43 F 3 40-49 28:50.6 9:19/M
27 Zoe Tripp 19 F 1 0- 0 29:40.0 9:34/M
28 Hannah Bowden Woodway TX 26 12 F 1 Top Fin 30:04.8 9:44/M
29 Shelby Lintelman Woodway TX 22 12 F 1 1-19 30:08.9 9:44/M
30 Crystal Brown Woodway TX 16 32 F 2 30-39 30:22.0 9:50/M
31 Jeffory Brown Woodway TX 17 37 M 1 30-39 30:22.6 9:50/M
32 Angie Cox Waco TX 58 31 F 3 30-39 30:22.7 9:50/M
33 Kendi Filos Hewitt TX 25 10 F 2 1-19 30:51.2 9:57/M
34 Isabelle Madewell Hewitt TX 75 9 F 3 1-19 31:00.5 10:02/M
35 Mark Miller Lorena TX 47 32 M 2 30-39 31:47.6 10:16/M
36 Falon Reyes Waco TX 59 31 F 4 30-39 31:50.8 10:19/M
37 Allyson Foster Waco TX 60 26 F 2 20-29 32:52.3 10:38/M
38 Bessie Kebaara Hewitt TX 23 44 F 4 40-49 32:58.3 10:38/M
39 Amanda Kampermann Woodway TX 8 12 F 4 1-19 32:59.4 10:38/M
40 Crystin Tinney Woodway TX 50 12 F 5 1-19 32:59.4 10:38/M
41 Malaina Huff Mc Gregor TX 49 11 F 6 1-19 33:02.0 10:39/M
42 Amanda Huff Mc Gregor TX 48 42 F 5 40-49 33:24.1 10:48/M
43 Jenny Whiteside West TX 30 26 F 3 20-29 34:39.6 11:12/M
44 Katherine Chavez Hewitt TX 29 33 F 5 30-39 34:40.4 11:12/M
45 Calvin Madewell Hewitt TX 77 44 M 5 40-49 35:45.9 11:34/M
46 Cori Madewell Hewitt TX 76 41 F 6 40-49 35:46.0 11:34/M
47 Melora Roach Waco TX 1 43 F 7 40-49 36:50.9 11:53/M
48 Lyndsey Shook 87 32 F 6 30-39 36:55.5 11:55/M
49 Dawn Palm Mesa AZ 39 50 F 1 50-59 37:06.0 11:58/M
50 Tina Little 84 47 F 8 40-49 37:16.6 12:03/M
51 Amber Minnick Woodwaywaco TX 44 23 F 4 20-29 38:02.0 12:16/M
52 Petra Ashleman Waco TX 12 57 F 2 50-59 38:04.3 12:18/M
53 Julie Andress Waco TX 10 45 F 9 40-49 38:07.7 12:19/M
54 Debbie Strouse Waco TX 11 43 F 10 40-49 38:24.0 12:23/M
55 Brayden Maggerd 86 12 M 8 1-19 39:02.2 12:36/M
56 Brent Stiles Hewitt TX 13 58 M 3 50-59 40:39.1 13:10/M
57 Dena Parsons Chilton TX 27 43 F 11 40-49 40:41.2 13:10/M
58 Ashton Meyer Hewitt TX 64 11 M 9 1-19 43:45.2 14:09/M
59 Sherri Tucker Waco TX 52 43 F 12 40-49 45:16.3 14:40/M
60 Annette Figueroa Hewitt TX 63 30 F 7 30-39 46:10.7 14:56/M
61 Cathy Bernier Hewitt TX 62 59 F 3 50-59 47:17.7 15:19/M
62 Amanda Hinshaw Mesa AZ 42 29 F 5 20-29 47:30.0 15:19/M
63 Marie Dach Temple TX 20 50 F 4 50-59 49:02.5 15:52/M
64 Suzanne Levy 80 49 F 13 40-49 49:02.6 15:53/M
65 Patsy Miller 54 68 F 1 60-99 51:09.3 16:33/M
66 Dreamor Tierce Waco TX 45 32 F 8 30-39 52:51.4 17:07/M
67 Ashley Crane Waco TX 46 29 F 6 20-29 52:51.9 17:08/M
68 Xavier Gonzalez Martinez Hewitt TX 67 32 M 3 30-39 54:46.9 17:44/M
69 Xavier Gonzalez Hewitt TX 66 6 M 10 1-19 54:48.7 17:44/M